sensor_id;sensor_type;location;lat;lon;timestamp;pressure;altitude;pressure_sealevel;temperature;humidity
52855;BME280;38719;51.418;7.286;2023-06-24T00:02:19;100688.00;;;19.27;64.73
52855;BME280;38719;51.418;7.286;2023-06-24T00:04:51;100682.66;;;19.25;64.61
52855;BME280;38719;51.418;7.286;2023-06-24T00:07:18;100686.44;;;19.23;65.13
52855;BME280;38719;51.418;7.286;2023-06-24T00:09:50;100680.63;;;19.29;64.86
52855;BME280;38719;51.418;7.286;2023-06-24T00:12:17;100691.84;;;19.10;65.42
52855;BME280;38719;51.418;7.286;2023-06-24T00:14:46;100690.66;;;19.14;65.37
52855;BME280;38719;51.418;7.286;2023-06-24T00:17:14;100687.53;;;19.20;64.92
52855;BME280;38719;51.418;7.286;2023-06-24T00:19:43;100685.34;;;18.99;65.47
52855;BME280;38719;51.418;7.286;2023-06-24T00:22:11;100687.75;;;18.77;66.07
52855;BME280;38719;51.418;7.286;2023-06-24T00:24:41;100686.41;;;18.97;65.52
52855;BME280;38719;51.418;7.286;2023-06-24T00:27:10;100679.72;;;18.90;65.87
52855;BME280;38719;51.418;7.286;2023-06-24T00:29:38;100681.78;;;18.99;66.21
52855;BME280;38719;51.418;7.286;2023-06-24T00:32:07;100680.59;;;19.03;65.90
52855;BME280;38719;51.418;7.286;2023-06-24T00:34:34;100678.97;;;19.00;65.84
52855;BME280;38719;51.418;7.286;2023-06-24T00:37:02;100679.22;;;19.10;65.40
52855;BME280;38719;51.418;7.286;2023-06-24T00:39:30;100679.88;;;19.14;64.95
52855;BME280;38719;51.418;7.286;2023-06-24T00:41:58;100670.91;;;19.13;65.01
52855;BME280;38719;51.418;7.286;2023-06-24T00:44:27;100673.38;;;19.04;65.39
52855;BME280;38719;51.418;7.286;2023-06-24T00:46:54;100675.63;;;18.97;65.28
52855;BME280;38719;51.418;7.286;2023-06-24T00:49:22;100680.16;;;18.96;65.31
52855;BME280;38719;51.418;7.286;2023-06-24T00:51:49;100678.94;;;18.88;65.30
52855;BME280;38719;51.418;7.286;2023-06-24T00:54:18;100677.09;;;18.75;66.12
52855;BME280;38719;51.418;7.286;2023-06-24T00:56:45;100672.28;;;18.93;65.25
52855;BME280;38719;51.418;7.286;2023-06-24T00:59:15;100668.53;;;18.96;65.53
52855;BME280;38719;51.418;7.286;2023-06-24T01:01:46;100669.50;;;18.95;65.29
52855;BME280;38719;51.418;7.286;2023-06-24T01:04:14;100673.84;;;18.83;65.98
52855;BME280;38719;51.418;7.286;2023-06-24T01:06:44;100673.66;;;18.86;66.02
52855;BME280;38719;51.418;7.286;2023-06-24T01:09:12;100680.63;;;18.76;66.10
52855;BME280;38719;51.418;7.286;2023-06-24T01:11:39;100676.00;;;18.78;66.04
52855;BME280;38719;51.418;7.286;2023-06-24T01:14:08;100661.97;;;18.73;66.23
52855;BME280;38719;51.418;7.286;2023-06-24T01:16:42;100671.75;;;18.61;66.78
52855;BME280;38719;51.418;7.286;2023-06-24T01:19:29;100670.66;;;18.63;66.12
52855;BME280;38719;51.418;7.286;2023-06-24T01:22:06;100671.56;;;18.64;66.56
52855;BME280;38719;51.418;7.286;2023-06-24T01:24:53;100670.47;;;18.66;66.34
52855;BME280;38719;51.418;7.286;2023-06-24T01:30:38;100667.72;;;18.53;66.95
52855;BME280;38719;51.418;7.286;2023-06-24T01:33:16;100668.84;;;18.64;66.44
52855;BME280;38719;51.418;7.286;2023-06-24T01:35:47;100663.22;;;18.54;66.55
52855;BME280;38719;51.418;7.286;2023-06-24T01:38:22;100666.88;;;18.53;66.52
52855;BME280;38719;51.418;7.286;2023-06-24T01:40:51;100659.88;;;18.63;66.08
52855;BME280;38719;51.418;7.286;2023-06-24T01:43:20;100649.25;;;18.47;67.41
52855;BME280;38719;51.418;7.286;2023-06-24T01:45:51;100655.53;;;18.48;66.84
52855;BME280;38719;51.418;7.286;2023-06-24T01:48:24;100653.50;;;18.51;66.71
52855;BME280;38719;51.418;7.286;2023-06-24T01:50:58;100650.88;;;18.50;66.75
52855;BME280;38719;51.418;7.286;2023-06-24T01:53:27;100647.78;;;18.56;66.76
52855;BME280;38719;51.418;7.286;2023-06-24T01:55:57;100650.16;;;18.61;66.03
52855;BME280;38719;51.418;7.286;2023-06-24T01:58:26;100654.34;;;18.52;67.04
52855;BME280;38719;51.418;7.286;2023-06-24T02:00:56;100644.34;;;18.54;66.97
52855;BME280;38719;51.418;7.286;2023-06-24T02:03:26;100653.38;;;18.53;66.62
52855;BME280;38719;51.418;7.286;2023-06-24T02:05:55;100652.69;;;18.36;67.68
52855;BME280;38719;51.418;7.286;2023-06-24T02:08:24;100659.97;;;18.49;67.10
52855;BME280;38719;51.418;7.286;2023-06-24T02:10:53;100660.41;;;18.56;66.61
52855;BME280;38719;51.418;7.286;2023-06-24T02:13:21;100658.91;;;18.51;66.67
52855;BME280;38719;51.418;7.286;2023-06-24T02:15:51;100658.00;;;18.51;66.92
52855;BME280;38719;51.418;7.286;2023-06-24T02:18:19;100659.06;;;18.35;67.02
52855;BME280;38719;51.418;7.286;2023-06-24T02:20:51;100653.66;;;18.35;66.75
52855;BME280;38719;51.418;7.286;2023-06-24T02:23:20;100650.31;;;18.32;67.26
52855;BME280;38719;51.418;7.286;2023-06-24T02:25:49;100646.13;;;18.41;67.22
52855;BME280;38719;51.418;7.286;2023-06-24T02:28:17;100648.06;;;18.39;67.51
52855;BME280;38719;51.418;7.286;2023-06-24T02:30:46;100643.69;;;18.50;66.30
52855;BME280;38719;51.418;7.286;2023-06-24T02:33:14;100640.03;;;18.24;67.67
52855;BME280;38719;51.418;7.286;2023-06-24T02:35:43;100641.84;;;18.51;67.40
52855;BME280;38719;51.418;7.286;2023-06-24T02:38:13;100649.06;;;18.50;66.87
52855;BME280;38719;51.418;7.286;2023-06-24T02:40:43;100647.28;;;18.64;66.61
52855;BME280;38719;51.418;7.286;2023-06-24T02:43:11;100644.88;;;18.59;66.39
52855;BME280;38719;51.418;7.286;2023-06-24T02:45:39;100647.16;;;18.52;66.58
52855;BME280;38719;51.418;7.286;2023-06-24T02:48:07;100654.09;;;18.42;67.24
52855;BME280;38719;51.418;7.286;2023-06-24T02:50:37;100647.63;;;18.45;67.55
52855;BME280;38719;51.418;7.286;2023-06-24T02:53:07;100644.22;;;18.56;66.98
52855;BME280;38719;51.418;7.286;2023-06-24T02:55:36;100647.03;;;18.54;66.85
52855;BME280;38719;51.418;7.286;2023-06-24T02:58:05;100649.78;;;18.40;67.54
52855;BME280;38719;51.418;7.286;2023-06-24T03:00:34;100649.00;;;18.37;66.82
52855;BME280;38719;51.418;7.286;2023-06-24T03:03:03;100639.06;;;18.52;66.92
52855;BME280;38719;51.418;7.286;2023-06-24T03:05:32;100646.53;;;18.34;67.16
52855;BME280;38719;51.418;7.286;2023-06-24T03:08:00;100652.69;;;18.36;66.99
52855;BME280;38719;51.418;7.286;2023-06-24T03:10:30;100653.66;;;18.35;67.72
52855;BME280;38719;51.418;7.286;2023-06-24T03:12:58;100648.88;;;18.26;67.69
52855;BME280;38719;51.418;7.286;2023-06-24T03:15:26;100655.19;;;18.40;67.22
52855;BME280;38719;51.418;7.286;2023-06-24T03:17:54;100642.88;;;18.35;67.07
52855;BME280;38719;51.418;7.286;2023-06-24T03:20:22;100645.31;;;18.53;66.92
52855;BME280;38719;51.418;7.286;2023-06-24T03:22:50;100652.19;;;18.44;66.95
52855;BME280;38719;51.418;7.286;2023-06-24T03:25:18;100647.44;;;18.48;67.02
52855;BME280;38719;51.418;7.286;2023-06-24T03:27:46;100646.78;;;18.44;66.85
52855;BME280;38719;51.418;7.286;2023-06-24T03:30:15;100650.94;;;18.63;66.31
52855;BME280;38719;51.418;7.286;2023-06-24T03:32:42;100649.63;;;18.68;66.44
52855;BME280;38719;51.418;7.286;2023-06-24T03:35:14;100646.75;;;18.72;66.21
52855;BME280;38719;51.418;7.286;2023-06-24T03:37:41;100656.34;;;18.63;65.67
52855;BME280;38719;51.418;7.286;2023-06-24T03:40:10;100655.28;;;18.78;66.37
52855;BME280;38719;51.418;7.286;2023-06-24T03:42:37;100648.19;;;18.90;65.30
52855;BME280;38719;51.418;7.286;2023-06-24T03:45:06;100655.13;;;18.94;65.71
52855;BME280;38719;51.418;7.286;2023-06-24T03:47:35;100663.53;;;18.90;65.50
52855;BME280;38719;51.418;7.286;2023-06-24T03:50:02;100661.28;;;18.96;65.58
52855;BME280;38719;51.418;7.286;2023-06-24T03:52:30;100659.22;;;19.13;64.69
52855;BME280;38719;51.418;7.286;2023-06-24T03:54:57;100655.13;;;19.20;64.12
52855;BME280;38719;51.418;7.286;2023-06-24T03:57:25;100651.88;;;19.28;63.96
52855;BME280;38719;51.418;7.286;2023-06-24T03:59:52;100657.63;;;19.23;63.71
52855;BME280;38719;51.418;7.286;2023-06-24T04:02:20;100663.47;;;19.30;64.77
52855;BME280;38719;51.418;7.286;2023-06-24T04:04:49;100658.03;;;19.43;64.50
52855;BME280;38719;51.418;7.286;2023-06-24T04:07:18;100661.59;;;19.56;63.91
52855;BME280;38719;51.418;7.286;2023-06-24T04:09:54;100665.53;;;19.39;62.69
52855;BME280;38719;51.418;7.286;2023-06-24T04:12:22;100662.03;;;19.24;63.22
52855;BME280;38719;51.418;7.286;2023-06-24T04:14:49;100669.06;;;19.65;63.34
52855;BME280;38719;51.418;7.286;2023-06-24T04:17:17;100672.72;;;19.64;62.55
52855;BME280;38719;51.418;7.286;2023-06-24T04:19:45;100662.59;;;19.29;63.05
52855;BME280;38719;51.418;7.286;2023-06-24T04:22:14;100661.59;;;19.30;62.68
52855;BME280;38719;51.418;7.286;2023-06-24T04:24:41;100659.44;;;19.48;62.49
52855;BME280;38719;51.418;7.286;2023-06-24T04:27:09;100660.00;;;19.41;62.07
52855;BME280;38719;51.418;7.286;2023-06-24T04:29:36;100667.00;;;19.30;62.48
52855;BME280;38719;51.418;7.286;2023-06-24T04:32:04;100663.13;;;19.35;62.11
52855;BME280;38719;51.418;7.286;2023-06-24T04:34:32;100668.28;;;19.63;61.96
52855;BME280;38719;51.418;7.286;2023-06-24T04:36:59;100669.78;;;19.68;61.95
52855;BME280;38719;51.418;7.286;2023-06-24T04:39:28;100667.56;;;19.48;61.84
52855;BME280;38719;51.418;7.286;2023-06-24T04:41:56;100676.28;;;19.78;61.07
52855;BME280;38719;51.418;7.286;2023-06-24T04:44:23;100673.94;;;19.60;61.57
52855;BME280;38719;51.418;7.286;2023-06-24T04:46:51;100682.03;;;19.60;61.42
52855;BME280;38719;51.418;7.286;2023-06-24T04:49:18;100676.06;;;19.94;61.07
52855;BME280;38719;51.418;7.286;2023-06-24T04:51:46;100685.19;;;20.17;59.94
52855;BME280;38719;51.418;7.286;2023-06-24T04:54:14;100686.56;;;20.23;59.80
52855;BME280;38719;51.418;7.286;2023-06-24T04:56:42;100673.59;;;20.15;60.19
52855;BME280;38719;51.418;7.286;2023-06-24T04:59:14;100682.47;;;20.41;59.08
52855;BME280;38719;51.418;7.286;2023-06-24T05:01:41;100666.53;;;20.50;59.21
52855;BME280;38719;51.418;7.286;2023-06-24T05:04:09;100673.56;;;20.52;59.30
52855;BME280;38719;51.418;7.286;2023-06-24T05:06:36;100665.56;;;20.75;59.21
52855;BME280;38719;51.418;7.286;2023-06-24T05:09:04;100673.19;;;20.81;58.33
52855;BME280;38719;51.418;7.286;2023-06-24T05:11:31;100669.94;;;21.00;58.80
52855;BME280;38719;51.418;7.286;2023-06-24T05:14:00;100668.53;;;20.83;58.17
52855;BME280;38719;51.418;7.286;2023-06-24T05:16:28;100664.88;;;20.96;57.89
52855;BME280;38719;51.418;7.286;2023-06-24T05:18:55;100669.69;;;21.03;57.50
52855;BME280;38719;51.418;7.286;2023-06-24T05:21:23;100661.78;;;20.89;58.34
52855;BME280;38719;51.418;7.286;2023-06-24T05:23:50;100666.97;;;20.92;58.62
52855;BME280;38719;51.418;7.286;2023-06-24T05:26:18;100663.31;;;21.16;57.17
52855;BME280;38719;51.418;7.286;2023-06-24T05:28:45;100669.22;;;21.21;57.78
52855;BME280;38719;51.418;7.286;2023-06-24T05:31:14;100674.03;;;21.17;57.67
52855;BME280;38719;51.418;7.286;2023-06-24T05:33:42;100666.31;;;21.24;57.14
52855;BME280;38719;51.418;7.286;2023-06-24T05:36:09;100665.69;;;21.20;57.62
52855;BME280;38719;51.418;7.286;2023-06-24T05:38:37;100667.56;;;21.54;57.17
52855;BME280;38719;51.418;7.286;2023-06-24T05:41:04;100666.66;;;21.42;57.93
52855;BME280;38719;51.418;7.286;2023-06-24T05:43:32;100665.97;;;21.63;56.90
52855;BME280;38719;51.418;7.286;2023-06-24T05:45:59;100667.28;;;21.34;57.62
52855;BME280;38719;51.418;7.286;2023-06-24T05:48:28;100670.69;;;21.72;58.40
52855;BME280;38719;51.418;7.286;2023-06-24T05:50:55;100675.72;;;21.88;57.54
52855;BME280;38719;51.418;7.286;2023-06-24T05:53:23;100675.59;;;21.78;57.28
52855;BME280;38719;51.418;7.286;2023-06-24T05:55:51;100668.16;;;21.92;56.67
52855;BME280;38719;51.418;7.286;2023-06-24T05:58:18;100670.13;;;22.01;57.47
52855;BME280;38719;51.418;7.286;2023-06-24T06:00:46;100674.56;;;22.13;56.90
52855;BME280;38719;51.418;7.286;2023-06-24T06:03:13;100668.69;;;21.97;56.55
52855;BME280;38719;51.418;7.286;2023-06-24T06:05:42;100673.63;;;21.57;57.69
52855;BME280;38719;51.418;7.286;2023-06-24T06:08:10;100666.94;;;21.39;58.14
52855;BME280;38719;51.418;7.286;2023-06-24T06:10:37;100674.97;;;21.74;57.28
52855;BME280;38719;51.418;7.286;2023-06-24T06:13:05;100674.09;;;21.97;57.12
52855;BME280;38719;51.418;7.286;2023-06-24T06:15:32;100671.66;;;21.71;57.41
52855;BME280;38719;51.418;7.286;2023-06-24T06:18:00;100679.28;;;21.77;56.78
52855;BME280;38719;51.418;7.286;2023-06-24T06:20:28;100678.28;;;21.67;57.35
52855;BME280;38719;51.418;7.286;2023-06-24T06:22:57;100681.50;;;21.72;58.04
52855;BME280;38719;51.418;7.286;2023-06-24T06:25:24;100688.88;;;21.47;58.28
52855;BME280;38719;51.418;7.286;2023-06-24T06:27:52;100685.94;;;21.62;58.55
52855;BME280;38719;51.418;7.286;2023-06-24T06:30:20;100688.41;;;21.76;58.15
52855;BME280;38719;51.418;7.286;2023-06-24T06:32:47;100679.13;;;21.90;57.08
52855;BME280;38719;51.418;7.286;2023-06-24T06:35:15;100683.97;;;21.75;57.92
52855;BME280;38719;51.418;7.286;2023-06-24T06:37:42;100688.25;;;21.89;57.37
52855;BME280;38719;51.418;7.286;2023-06-24T06:40:12;100691.94;;;22.11;57.38
52855;BME280;38719;51.418;7.286;2023-06-24T06:42:40;100691.94;;;21.54;58.16
52855;BME280;38719;51.418;7.286;2023-06-24T06:45:09;100688.38;;;21.99;57.86
52855;BME280;38719;51.418;7.286;2023-06-24T06:47:37;100694.78;;;21.86;58.17
52855;BME280;38719;51.418;7.286;2023-06-24T06:50:05;100690.00;;;21.67;58.11
52855;BME280;38719;51.418;7.286;2023-06-24T06:52:34;100698.63;;;21.84;58.38
52855;BME280;38719;51.418;7.286;2023-06-24T06:55:01;100704.31;;;21.69;59.02
52855;BME280;38719;51.418;7.286;2023-06-24T06:57:30;100707.63;;;21.84;58.68
52855;BME280;38719;51.418;7.286;2023-06-24T06:59:58;100706.41;;;21.66;59.00
52855;BME280;38719;51.418;7.286;2023-06-24T07:02:25;100704.19;;;21.60;59.99
52855;BME280;38719;51.418;7.286;2023-06-24T07:04:53;100714.84;;;21.50;59.91
52855;BME280;38719;51.418;7.286;2023-06-24T07:07:20;100706.88;;;21.94;59.12
52855;BME280;38719;51.418;7.286;2023-06-24T07:09:48;100706.97;;;22.03;58.68
52855;BME280;38719;51.418;7.286;2023-06-24T07:12:16;100708.34;;;21.98;59.19
52855;BME280;38719;51.418;7.286;2023-06-24T07:14:45;100709.13;;;22.32;58.58
52855;BME280;38719;51.418;7.286;2023-06-24T07:17:12;100710.53;;;22.38;58.19
52855;BME280;38719;51.418;7.286;2023-06-24T07:19:40;100707.31;;;22.33;58.26
52855;BME280;38719;51.418;7.286;2023-06-24T07:22:08;100706.31;;;22.34;58.65
52855;BME280;38719;51.418;7.286;2023-06-24T07:24:35;100703.47;;;22.35;58.65
52855;BME280;38719;51.418;7.286;2023-06-24T07:27:04;100715.13;;;22.70;57.82
52855;BME280;38719;51.418;7.286;2023-06-24T07:29:31;100711.66;;;22.68;57.74
52855;BME280;38719;51.418;7.286;2023-06-24T07:32:00;100713.16;;;22.72;57.99
52855;BME280;38719;51.418;7.286;2023-06-24T07:34:29;100708.19;;;22.77;57.76
52855;BME280;38719;51.418;7.286;2023-06-24T07:36:56;100712.34;;;22.81;58.52
52855;BME280;38719;51.418;7.286;2023-06-24T07:39:28;100717.59;;;22.62;58.88
52855;BME280;38719;51.418;7.286;2023-06-24T07:41:56;100722.84;;;23.07;57.40
52855;BME280;38719;51.418;7.286;2023-06-24T07:44:23;100723.69;;;22.86;56.86
52855;BME280;38719;51.418;7.286;2023-06-24T07:46:51;100725.69;;;22.73;57.91
52855;BME280;38719;51.418;7.286;2023-06-24T07:49:19;100724.50;;;22.98;57.46
52855;BME280;38719;51.418;7.286;2023-06-24T07:51:47;100722.78;;;22.97;57.49
52855;BME280;38719;51.418;7.286;2023-06-24T07:54:15;100719.00;;;22.89;57.95
52855;BME280;38719;51.418;7.286;2023-06-24T07:56:42;100711.69;;;23.43;56.76
52855;BME280;38719;51.418;7.286;2023-06-24T07:59:10;100714.91;;;23.15;57.21
52855;BME280;38719;51.418;7.286;2023-06-24T08:01:37;100724.03;;;23.57;56.82
52855;BME280;38719;51.418;7.286;2023-06-24T08:04:05;100723.69;;;23.71;56.93
52855;BME280;38719;51.418;7.286;2023-06-24T08:06:34;100715.59;;;23.81;56.85
52855;BME280;38719;51.418;7.286;2023-06-24T08:09:01;100715.78;;;23.68;57.40
52855;BME280;38719;51.418;7.286;2023-06-24T08:11:29;100716.94;;;23.65;57.64
52855;BME280;38719;51.418;7.286;2023-06-24T08:13:57;100718.72;;;23.76;57.57
52855;BME280;38719;51.418;7.286;2023-06-24T08:16:25;100716.94;;;23.65;57.45
52855;BME280;38719;51.418;7.286;2023-06-24T08:18:52;100715.03;;;23.87;56.98
52855;BME280;38719;51.418;7.286;2023-06-24T08:21:20;100714.84;;;23.79;56.97
52855;BME280;38719;51.418;7.286;2023-06-24T08:23:49;100719.56;;;24.08;56.55
52855;BME280;38719;51.418;7.286;2023-06-24T08:26:19;100717.03;;;24.26;56.04
52855;BME280;38719;51.418;7.286;2023-06-24T08:28:47;100715.59;;;23.91;56.67
52855;BME280;38719;51.418;7.286;2023-06-24T08:31:15;100720.75;;;24.25;56.67
52855;BME280;38719;51.418;7.286;2023-06-24T08:33:43;100715.97;;;23.97;57.13
52855;BME280;38719;51.418;7.286;2023-06-24T08:36:12;100707.84;;;24.17;56.97
52855;BME280;38719;51.418;7.286;2023-06-24T08:38:39;100715.34;;;24.35;56.57
52855;BME280;38719;51.418;7.286;2023-06-24T08:41:08;100711.75;;;24.44;57.92
52855;BME280;38719;51.418;7.286;2023-06-24T08:43:36;100706.03;;;24.37;56.15
52855;BME280;38719;51.418;7.286;2023-06-24T08:46:05;100716.34;;;24.43;55.98
52855;BME280;38719;51.418;7.286;2023-06-24T08:48:32;100712.97;;;24.71;56.22
52855;BME280;38719;51.418;7.286;2023-06-24T08:51:08;100706.06;;;24.96;55.43
52855;BME280;38719;51.418;7.286;2023-06-24T08:53:37;100708.53;;;24.99;55.38
52855;BME280;38719;51.418;7.286;2023-06-24T08:56:06;100704.66;;;24.72;55.07
52855;BME280;38719;51.418;7.286;2023-06-24T08:58:35;100710.69;;;24.86;54.46
52855;BME280;38719;51.418;7.286;2023-06-24T09:01:03;100710.09;;;25.02;53.53
52855;BME280;38719;51.418;7.286;2023-06-24T09:03:30;100706.63;;;25.09;52.59
52855;BME280;38719;51.418;7.286;2023-06-24T09:05:58;100707.50;;;25.20;52.68
52855;BME280;38719;51.418;7.286;2023-06-24T09:08:26;100712.22;;;25.37;53.10
52855;BME280;38719;51.418;7.286;2023-06-24T09:10:54;100702.88;;;25.50;52.46
52855;BME280;38719;51.418;7.286;2023-06-24T09:13:27;100702.53;;;25.53;51.13
52855;BME280;38719;51.418;7.286;2023-06-24T09:16:11;100699.97;;;25.51;50.67
52855;BME280;38719;51.418;7.286;2023-06-24T09:18:38;100702.53;;;25.53;50.33
52855;BME280;38719;51.418;7.286;2023-06-24T09:21:07;100702.19;;;25.75;49.65
52855;BME280;38719;51.418;7.286;2023-06-24T09:23:35;100693.28;;;25.73;50.02
52855;BME280;38719;51.418;7.286;2023-06-24T09:26:05;100695.50;;;25.60;50.50
52855;BME280;38719;51.418;7.286;2023-06-24T09:28:32;100691.59;;;25.63;49.35
52855;BME280;38719;51.418;7.286;2023-06-24T09:31:08;100687.63;;;25.85;49.08
52855;BME280;38719;51.418;7.286;2023-06-24T09:33:39;100697.88;;;25.83;49.52
52855;BME280;38719;51.418;7.286;2023-06-24T09:36:11;100680.69;;;26.00;48.31
52855;BME280;38719;51.418;7.286;2023-06-24T09:38:41;100679.38;;;25.77;49.21
52855;BME280;38719;51.418;7.286;2023-06-24T09:41:10;100677.25;;;26.26;47.72
52855;BME280;38719;51.418;7.286;2023-06-24T09:43:41;100674.31;;;26.37;48.99
52855;BME280;38719;51.418;7.286;2023-06-24T09:46:12;100681.19;;;26.60;48.05
52855;BME280;38719;51.418;7.286;2023-06-24T09:48:42;100678.66;;;26.66;48.54
52855;BME280;38719;51.418;7.286;2023-06-24T09:51:11;100685.94;;;26.58;47.38
52855;BME280;38719;51.418;7.286;2023-06-24T09:53:40;100672.44;;;26.56;47.89
52855;BME280;38719;51.418;7.286;2023-06-24T09:56:08;100669.75;;;26.64;47.80
52855;BME280;38719;51.418;7.286;2023-06-24T09:58:37;100667.34;;;26.61;47.01
52855;BME280;38719;51.418;7.286;2023-06-24T10:01:06;100666.59;;;26.87;48.28
52855;BME280;38719;51.418;7.286;2023-06-24T10:03:36;100654.13;;;27.11;47.35
52855;BME280;38719;51.418;7.286;2023-06-24T10:06:05;100660.75;;;26.82;47.02
52855;BME280;38719;51.418;7.286;2023-06-24T10:08:34;100660.03;;;26.80;47.03
52855;BME280;38719;51.418;7.286;2023-06-24T10:11:01;100659.56;;;26.84;46.53
52855;BME280;38719;51.418;7.286;2023-06-24T10:13:29;100657.81;;;26.65;46.62
52855;BME280;38719;51.418;7.286;2023-06-24T10:15:57;100654.06;;;26.12;47.99
52855;BME280;38719;51.418;7.286;2023-06-24T10:18:37;100653.94;;;26.32;48.16
52855;BME280;38719;51.418;7.286;2023-06-24T10:21:06;100646.91;;;26.65;47.80
52855;BME280;38719;51.418;7.286;2023-06-24T10:23:39;100637.06;;;26.91;46.20
52855;BME280;38719;51.418;7.286;2023-06-24T10:26:09;100641.84;;;27.15;46.72
52855;BME280;38719;51.418;7.286;2023-06-24T10:29:11;100635.13;;;27.35;46.33
52855;BME280;38719;51.418;7.286;2023-06-24T10:31:51;100632.03;;;27.57;44.93
52855;BME280;38719;51.418;7.286;2023-06-24T10:34:34;100628.88;;;26.91;45.30
52855;BME280;38719;51.418;7.286;2023-06-24T10:37:09;100629.97;;;27.32;45.67
52855;BME280;38719;51.418;7.286;2023-06-24T10:39:39;100626.78;;;27.11;43.99
52855;BME280;38719;51.418;7.286;2023-06-24T10:42:40;100625.88;;;27.28;43.48
52855;BME280;38719;51.418;7.286;2023-06-24T10:45:19;100615.53;;;27.40;43.65
52855;BME280;38719;51.418;7.286;2023-06-24T10:47:48;100616.81;;;27.54;44.17
52855;BME280;38719;51.418;7.286;2023-06-24T10:50:19;100611.91;;;27.74;42.89
52855;BME280;38719;51.418;7.286;2023-06-24T10:52:47;100620.00;;;27.84;43.53
52855;BME280;38719;51.418;7.286;2023-06-24T10:55:17;100621.75;;;27.93;43.01
52855;BME280;38719;51.418;7.286;2023-06-24T10:57:45;100611.38;;;27.62;43.30
52855;BME280;38719;51.418;7.286;2023-06-24T11:00:14;100617.59;;;27.81;42.47
52855;BME280;38719;51.418;7.286;2023-06-24T11:02:42;100619.00;;;28.02;42.67
52855;BME280;38719;51.418;7.286;2023-06-24T11:05:09;100606.66;;;27.89;42.35
52855;BME280;38719;51.418;7.286;2023-06-24T11:07:39;100604.31;;;27.94;42.92
52855;BME280;38719;51.418;7.286;2023-06-24T11:10:10;100604.47;;;28.01;42.54
52855;BME280;38719;51.418;7.286;2023-06-24T11:12:40;100599.78;;;27.77;40.07
52855;BME280;38719;51.418;7.286;2023-06-24T11:15:10;100593.19;;;27.53;40.17
52855;BME280;38719;51.418;7.286;2023-06-24T11:17:39;100600.31;;;27.72;40.66
52855;BME280;38719;51.418;7.286;2023-06-24T11:20:07;100603.59;;;27.92;41.40
52855;BME280;38719;51.418;7.286;2023-06-24T11:22:35;100598.00;;;28.10;38.73
52855;BME280;38719;51.418;7.286;2023-06-24T11:25:05;100596.16;;;28.27;39.00
52855;BME280;38719;51.418;7.286;2023-06-24T11:27:33;100601.97;;;28.33;40.07
52855;BME280;38719;51.418;7.286;2023-06-24T11:30:01;100601.44;;;28.04;40.47
52855;BME280;38719;51.418;7.286;2023-06-24T11:32:35;100591.03;;;28.24;37.39
52855;BME280;38719;51.418;7.286;2023-06-24T11:35:05;100591.88;;;28.41;38.00
52855;BME280;38719;51.418;7.286;2023-06-24T11:37:33;100587.28;;;28.25;38.66
52855;BME280;38719;51.418;7.286;2023-06-24T11:40:02;100600.97;;;28.58;35.58
52855;BME280;38719;51.418;7.286;2023-06-24T11:42:32;100589.50;;;28.63;31.66
52855;BME280;38719;51.418;7.286;2023-06-24T11:45:04;100598.22;;;28.67;34.13
52855;BME280;38719;51.418;7.286;2023-06-24T11:47:33;100591.88;;;29.16;35.01
52855;BME280;38719;51.418;7.286;2023-06-24T11:50:01;100592.06;;;29.06;31.41
52855;BME280;38719;51.418;7.286;2023-06-24T11:52:37;100583.41;;;29.25;33.62
52855;BME280;38719;51.418;7.286;2023-06-24T11:55:11;100583.41;;;29.34;33.96
52855;BME280;38719;51.418;7.286;2023-06-24T11:57:55;100582.78;;;29.63;35.23
52855;BME280;38719;51.418;7.286;2023-06-24T12:00:24;100584.34;;;29.57;34.29
52855;BME280;38719;51.418;7.286;2023-06-24T12:02:53;100576.44;;;29.63;34.73
52855;BME280;38719;51.418;7.286;2023-06-24T12:05:26;100578.84;;;29.66;33.82
52855;BME280;38719;51.418;7.286;2023-06-24T12:07:56;100576.69;;;29.45;33.71
52855;BME280;38719;51.418;7.286;2023-06-24T12:10:24;100571.31;;;29.59;33.66
52855;BME280;38719;51.418;7.286;2023-06-24T12:12:53;100566.72;;;29.91;33.89
52855;BME280;38719;51.418;7.286;2023-06-24T12:15:21;100568.50;;;30.07;32.91
52855;BME280;38719;51.418;7.286;2023-06-24T12:17:49;100563.16;;;30.06;32.95
52855;BME280;38719;51.418;7.286;2023-06-24T12:20:16;100564.41;;;30.27;33.49
52855;BME280;38719;51.418;7.286;2023-06-24T12:22:45;100559.28;;;30.23;32.21
52855;BME280;38719;51.418;7.286;2023-06-24T12:25:12;100546.94;;;30.19;31.84
52855;BME280;38719;51.418;7.286;2023-06-24T12:27:42;100556.84;;;30.29;31.42
52855;BME280;38719;51.418;7.286;2023-06-24T12:30:12;100555.34;;;30.49;32.27
52855;BME280;38719;51.418;7.286;2023-06-24T12:32:40;100549.53;;;30.21;31.75
52855;BME280;38719;51.418;7.286;2023-06-24T12:35:08;100549.53;;;30.21;32.42
52855;BME280;38719;51.418;7.286;2023-06-24T12:37:37;100551.84;;;30.55;34.06
52855;BME280;38719;51.418;7.286;2023-06-24T12:40:05;100539.50;;;30.51;32.15
52855;BME280;38719;51.418;7.286;2023-06-24T12:42:33;100535.16;;;30.57;31.87
52855;BME280;38719;51.418;7.286;2023-06-24T12:45:01;100539.63;;;30.35;30.36
52855;BME280;38719;51.418;7.286;2023-06-24T12:47:30;100535.66;;;30.61;30.75
52855;BME280;38719;51.418;7.286;2023-06-24T12:49:57;100542.97;;;30.98;30.19
52855;BME280;38719;51.418;7.286;2023-06-24T12:52:25;100541.84;;;30.93;30.29
52855;BME280;38719;51.418;7.286;2023-06-24T12:54:52;100541.25;;;30.82;29.88
52855;BME280;38719;51.418;7.286;2023-06-24T12:57:20;100527.25;;;31.07;29.98
52855;BME280;38719;51.418;7.286;2023-06-24T12:59:47;100532.75;;;31.07;31.89
52855;BME280;38719;51.418;7.286;2023-06-24T13:02:15;100527.72;;;31.26;31.31
52855;BME280;38719;51.418;7.286;2023-06-24T13:04:44;100543.91;;;30.91;29.67